sensor_id;sensor_type;location;lat;lon;timestamp;temperature;humidity
41953;DHT22;63613;28.200;112.870;2023-06-19T00:00:20;29.60;57.90
41953;DHT22;63613;28.200;112.870;2023-06-19T00:03:07;29.60;57.80
41953;DHT22;63613;28.200;112.870;2023-06-19T00:05:34;29.60;57.80
41953;DHT22;63613;28.200;112.870;2023-06-19T00:08:01;29.60;57.90
41953;DHT22;63613;28.200;112.870;2023-06-19T00:10:29;29.60;58.00
41953;DHT22;63613;28.200;112.870;2023-06-19T00:12:56;29.60;58.00
41953;DHT22;63613;28.200;112.870;2023-06-19T00:15:23;29.60;58.10
41953;DHT22;63613;28.200;112.870;2023-06-19T00:17:50;29.60;58.10
41953;DHT22;63613;28.200;112.870;2023-06-19T00:20:19;29.60;58.00
41953;DHT22;63613;28.200;112.870;2023-06-19T00:22:46;29.60;58.10
41953;DHT22;63613;28.200;112.870;2023-06-19T00:25:18;29.60;58.00
41953;DHT22;63613;28.200;112.870;2023-06-19T00:27:49;29.60;58.10
41953;DHT22;63613;28.200;112.870;2023-06-19T00:30:16;29.60;58.20
41953;DHT22;63613;28.200;112.870;2023-06-19T00:32:42;29.60;58.30
41953;DHT22;63613;28.200;112.870;2023-06-19T00:35:18;29.60;58.30
41953;DHT22;63613;28.200;112.870;2023-06-19T00:37:45;29.60;58.30
41953;DHT22;63613;28.200;112.870;2023-06-19T00:40:32;29.60;58.40
41953;DHT22;63613;28.200;112.870;2023-06-19T00:43:00;29.70;58.30
41953;DHT22;63613;28.200;112.870;2023-06-19T00:45:27;29.70;58.30
41953;DHT22;63613;28.200;112.870;2023-06-19T00:47:55;29.70;58.30
41953;DHT22;63613;28.200;112.870;2023-06-19T00:50:22;29.70;58.30
41953;DHT22;63613;28.200;112.870;2023-06-19T00:52:50;29.70;58.40
41953;DHT22;63613;28.200;112.870;2023-06-19T00:55:17;29.70;58.40
41953;DHT22;63613;28.200;112.870;2023-06-19T00:57:45;29.70;58.40
41953;DHT22;63613;28.200;112.870;2023-06-19T01:00:12;29.70;58.40
41953;DHT22;63613;28.200;112.870;2023-06-19T01:02:39;29.80;58.30
41953;DHT22;63613;28.200;112.870;2023-06-19T01:05:09;29.80;58.30
41953;DHT22;63613;28.200;112.870;2023-06-19T01:08:00;29.80;58.20
41953;DHT22;63613;28.200;112.870;2023-06-19T01:10:38;29.80;58.30
41953;DHT22;63613;28.200;112.870;2023-06-19T01:13:15;29.80;58.30
41953;DHT22;63613;28.200;112.870;2023-06-19T01:15:44;29.70;58.40
41953;DHT22;63613;28.200;112.870;2023-06-19T01:18:11;29.70;58.40
41953;DHT22;63613;28.200;112.870;2023-06-19T01:20:38;29.80;58.40
41953;DHT22;63613;28.200;112.870;2023-06-19T01:23:09;29.80;58.40
41953;DHT22;63613;28.200;112.870;2023-06-19T01:25:37;29.80;58.40
41953;DHT22;63613;28.200;112.870;2023-06-19T01:28:08;29.80;58.40
41953;DHT22;63613;28.200;112.870;2023-06-19T01:30:40;29.80;58.40
41953;DHT22;63613;28.200;112.870;2023-06-19T01:33:26;29.80;58.40
41953;DHT22;63613;28.200;112.870;2023-06-19T01:35:55;29.90;58.50
41953;DHT22;63613;28.200;112.870;2023-06-19T01:38:25;29.90;58.50
41953;DHT22;63613;28.200;112.870;2023-06-19T01:40:57;29.90;58.50
41953;DHT22;63613;28.200;112.870;2023-06-19T01:43:26;30.00;58.40
41953;DHT22;63613;28.200;112.870;2023-06-19T01:45:54;30.00;58.40
41953;DHT22;63613;28.200;112.870;2023-06-19T01:48:22;30.00;58.30
41953;DHT22;63613;28.200;112.870;2023-06-19T01:50:50;30.10;58.40
41953;DHT22;63613;28.200;112.870;2023-06-19T01:53:17;30.10;58.60
41953;DHT22;63613;28.200;112.870;2023-06-19T01:55:44;30.10;58.80
41953;DHT22;63613;28.200;112.870;2023-06-19T01:58:10;30.10;58.70
41953;DHT22;63613;28.200;112.870;2023-06-19T02:00:37;30.20;59.00
41953;DHT22;63613;28.200;112.870;2023-06-19T02:03:05;30.20;59.20
41953;DHT22;63613;28.200;112.870;2023-06-19T02:05:32;30.20;59.30
41953;DHT22;63613;28.200;112.870;2023-06-19T02:08:00;30.20;59.20
41953;DHT22;63613;28.200;112.870;2023-06-19T02:10:27;30.20;59.00
41953;DHT22;63613;28.200;112.870;2023-06-19T02:12:55;30.20;58.90
41953;DHT22;63613;28.200;112.870;2023-06-19T02:15:24;30.20;58.80
41953;DHT22;63613;28.200;112.870;2023-06-19T02:17:51;30.20;58.60
41953;DHT22;63613;28.200;112.870;2023-06-19T02:20:22;30.20;58.40
41953;DHT22;63613;28.200;112.870;2023-06-19T02:22:50;30.20;58.50
41953;DHT22;63613;28.200;112.870;2023-06-19T02:25:18;30.20;58.30
41953;DHT22;63613;28.200;112.870;2023-06-19T02:27:45;30.20;58.20
41953;DHT22;63613;28.200;112.870;2023-06-19T02:30:12;30.20;58.10
41953;DHT22;63613;28.200;112.870;2023-06-19T02:32:39;30.20;58.30
41953;DHT22;63613;28.200;112.870;2023-06-19T02:35:09;30.20;58.60
41953;DHT22;63613;28.200;112.870;2023-06-19T02:37:36;30.20;58.90
41953;DHT22;63613;28.200;112.870;2023-06-19T02:40:23;30.20;58.70
41953;DHT22;63613;28.200;112.870;2023-06-19T02:42:49;30.20;58.40
41953;DHT22;63613;28.200;112.870;2023-06-19T02:45:16;30.20;58.30
41953;DHT22;63613;28.200;112.870;2023-06-19T02:47:44;30.20;58.30
41953;DHT22;63613;28.200;112.870;2023-06-19T02:50:12;30.20;58.30
41953;DHT22;63613;28.200;112.870;2023-06-19T02:52:38;30.20;58.20
41953;DHT22;63613;28.200;112.870;2023-06-19T02:55:05;30.20;58.10
41953;DHT22;63613;28.200;112.870;2023-06-19T02:57:33;30.20;58.20
41953;DHT22;63613;28.200;112.870;2023-06-19T03:00:00;30.20;58.10
41953;DHT22;63613;28.200;112.870;2023-06-19T03:02:27;30.20;58.10
41953;DHT22;63613;28.200;112.870;2023-06-19T03:04:53;30.20;57.90
41953;DHT22;63613;28.200;112.870;2023-06-19T03:07:23;30.30;57.80
41953;DHT22;63613;28.200;112.870;2023-06-19T03:09:54;30.30;57.70
41953;DHT22;63613;28.200;112.870;2023-06-19T03:12:21;30.30;57.70
41953;DHT22;63613;28.200;112.870;2023-06-19T03:14:48;30.40;57.60
41953;DHT22;63613;28.200;112.870;2023-06-19T03:17:16;30.40;57.70
41953;DHT22;63613;28.200;112.870;2023-06-19T03:19:43;30.40;57.60
41953;DHT22;63613;28.200;112.870;2023-06-19T03:22:10;30.40;57.60
41953;DHT22;63613;28.200;112.870;2023-06-19T03:24:36;30.40;57.60
41953;DHT22;63613;28.200;112.870;2023-06-19T03:27:03;30.40;57.70
41953;DHT22;63613;28.200;112.870;2023-06-19T03:29:30;30.50;57.70
41953;DHT22;63613;28.200;112.870;2023-06-19T03:32:17;30.50;57.60
41953;DHT22;63613;28.200;112.870;2023-06-19T03:34:44;30.50;57.60
41953;DHT22;63613;28.200;112.870;2023-06-19T03:37:11;30.60;58.30
41953;DHT22;63613;28.200;112.870;2023-06-19T03:39:41;30.60;58.10
41953;DHT22;63613;28.200;112.870;2023-06-19T03:42:08;30.60;57.60
41953;DHT22;63613;28.200;112.870;2023-06-19T03:44:35;30.70;57.30
41953;DHT22;63613;28.200;112.870;2023-06-19T03:47:02;30.70;57.10
41953;DHT22;63613;28.200;112.870;2023-06-19T03:49:29;30.70;57.10
41953;DHT22;63613;28.200;112.870;2023-06-19T03:51:56;30.70;57.30
41953;DHT22;63613;28.200;112.870;2023-06-19T03:54:22;30.70;58.00
41953;DHT22;63613;28.200;112.870;2023-06-19T03:56:49;30.70;57.90
41953;DHT22;63613;28.200;112.870;2023-06-19T03:59:16;30.70;58.40
41953;DHT22;63613;28.200;112.870;2023-06-19T04:01:43;30.70;58.70
41953;DHT22;63613;28.200;112.870;2023-06-19T04:04:10;30.70;58.60
41953;DHT22;63613;28.200;112.870;2023-06-19T04:06:37;30.70;58.60
41953;DHT22;63613;28.200;112.870;2023-06-19T04:09:03;30.60;58.50
41953;DHT22;63613;28.200;112.870;2023-06-19T04:11:31;30.70;58.40
41953;DHT22;63613;28.200;112.870;2023-06-19T04:13:57;30.70;57.90
41953;DHT22;63613;28.200;112.870;2023-06-19T04:16:24;30.60;57.80
41953;DHT22;63613;28.200;112.870;2023-06-19T04:18:51;30.70;58.10
41953;DHT22;63613;28.200;112.870;2023-06-19T04:21:19;30.70;58.20
41953;DHT22;63613;28.200;112.870;2023-06-19T04:23:46;30.70;57.90
41953;DHT22;63613;28.200;112.870;2023-06-19T04:26:12;30.70;57.50
41953;DHT22;63613;28.200;112.870;2023-06-19T04:28:39;30.70;57.30
41953;DHT22;63613;28.200;112.870;2023-06-19T04:31:08;30.70;57.20
41953;DHT22;63613;28.200;112.870;2023-06-19T04:33:34;30.70;57.20
41953;DHT22;63613;28.200;112.870;2023-06-19T04:36:02;30.70;57.10
41953;DHT22;63613;28.200;112.870;2023-06-19T04:38:29;30.80;57.10
41953;DHT22;63613;28.200;112.870;2023-06-19T04:40:56;30.70;57.00
41953;DHT22;63613;28.200;112.870;2023-06-19T04:43:43;30.80;57.00
41953;DHT22;63613;28.200;112.870;2023-06-19T04:46:10;30.80;57.00
41953;DHT22;63613;28.200;112.870;2023-06-19T04:51:23;30.90;57.50
41953;DHT22;63613;28.200;112.870;2023-06-19T04:53:52;30.90;58.50
41953;DHT22;63613;28.200;112.870;2023-06-19T04:56:23;30.90;57.80
41953;DHT22;63613;28.200;112.870;2023-06-19T04:58:50;30.90;57.30
41953;DHT22;63613;28.200;112.870;2023-06-19T05:01:18;30.90;57.10
41953;DHT22;63613;28.200;112.870;2023-06-19T05:03:49;31.00;57.00
41953;DHT22;63613;28.200;112.870;2023-06-19T05:06:16;31.00;56.90
41953;DHT22;63613;28.200;112.870;2023-06-19T05:08:43;31.00;56.90
41953;DHT22;63613;28.200;112.870;2023-06-19T05:11:12;31.00;56.80
41953;DHT22;63613;28.200;112.870;2023-06-19T05:13:39;31.00;57.00
41953;DHT22;63613;28.200;112.870;2023-06-19T05:16:06;30.90;57.20
41953;DHT22;63613;28.200;112.870;2023-06-19T05:18:53;30.90;57.20
41953;DHT22;63613;28.200;112.870;2023-06-19T05:21:20;30.90;57.30
41953;DHT22;63613;28.200;112.870;2023-06-19T05:23:47;31.00;57.40
41953;DHT22;63613;28.200;112.870;2023-06-19T05:26:25;31.10;57.30
41953;DHT22;63613;28.200;112.870;2023-06-19T05:28:54;31.10;57.30
41953;DHT22;63613;28.200;112.870;2023-06-19T05:31:20;31.00;57.60
41953;DHT22;63613;28.200;112.870;2023-06-19T05:33:50;31.10;57.60
41953;DHT22;63613;28.200;112.870;2023-06-19T05:36:17;31.10;57.70
41953;DHT22;63613;28.200;112.870;2023-06-19T05:38:44;31.10;57.70
41953;DHT22;63613;28.200;112.870;2023-06-19T05:41:13;31.10;57.80
41953;DHT22;63613;28.200;112.870;2023-06-19T05:43:42;31.10;58.00
41953;DHT22;63613;28.200;112.870;2023-06-19T05:46:10;31.00;58.10
41953;DHT22;63613;28.200;112.870;2023-06-19T05:48:43;31.10;58.20
41953;DHT22;63613;28.200;112.870;2023-06-19T05:51:10;31.10;58.20
41953;DHT22;63613;28.200;112.870;2023-06-19T05:53:38;31.20;58.20
41953;DHT22;63613;28.200;112.870;2023-06-19T05:56:05;31.20;58.20
41953;DHT22;63613;28.200;112.870;2023-06-19T05:58:32;31.20;57.80
41953;DHT22;63613;28.200;112.870;2023-06-19T06:00:59;31.30;57.50
41953;DHT22;63613;28.200;112.870;2023-06-19T06:03:26;31.20;57.30
41953;DHT22;63613;28.200;112.870;2023-06-19T06:06:15;31.30;57.50
41953;DHT22;63613;28.200;112.870;2023-06-19T06:08:41;31.30;58.30
41953;DHT22;63613;28.200;112.870;2023-06-19T06:11:08;31.30;59.10
41953;DHT22;63613;28.200;112.870;2023-06-19T06:13:38;31.20;59.70
41953;DHT22;63613;28.200;112.870;2023-06-19T06:16:05;31.20;60.00
41953;DHT22;63613;28.200;112.870;2023-06-19T06:18:32;31.20;60.30
41953;DHT22;63613;28.200;112.870;2023-06-19T06:20:59;31.20;60.40
41953;DHT22;63613;28.200;112.870;2023-06-19T06:23:26;31.20;60.50
41953;DHT22;63613;28.200;112.870;2023-06-19T06:25:52;31.20;60.70
41953;DHT22;63613;28.200;112.870;2023-06-19T06:28:20;31.20;60.90
41953;DHT22;63613;28.200;112.870;2023-06-19T06:30:47;31.20;60.90
41953;DHT22;63613;28.200;112.870;2023-06-19T06:33:17;31.20;61.00
41953;DHT22;63613;28.200;112.870;2023-06-19T06:35:47;31.20;61.00
41953;DHT22;63613;28.200;112.870;2023-06-19T06:38:15;31.20;61.20
41953;DHT22;63613;28.200;112.870;2023-06-19T06:40:42;31.20;61.10
41953;DHT22;63613;28.200;112.870;2023-06-19T06:43:09;31.20;60.90
41953;DHT22;63613;28.200;112.870;2023-06-19T06:45:40;31.20;60.40
41953;DHT22;63613;28.200;112.870;2023-06-19T06:48:09;31.20;59.80
41953;DHT22;63613;28.200;112.870;2023-06-19T06:50:36;31.10;59.00
41953;DHT22;63613;28.200;112.870;2023-06-19T06:53:07;31.10;58.30
41953;DHT22;63613;28.200;112.870;2023-06-19T06:55:37;31.10;57.40
41953;DHT22;63613;28.200;112.870;2023-06-19T06:58:04;31.10;56.80
41953;DHT22;63613;28.200;112.870;2023-06-19T07:00:31;31.00;56.00
41953;DHT22;63613;28.200;112.870;2023-06-19T07:02:58;31.10;55.30
41953;DHT22;63613;28.200;112.870;2023-06-19T07:05:25;31.00;54.80
41953;DHT22;63613;28.200;112.870;2023-06-19T07:07:51;30.90;54.40
41953;DHT22;63613;28.200;112.870;2023-06-19T07:10:19;31.00;53.90
41953;DHT22;63613;28.200;112.870;2023-06-19T07:12:48;30.90;53.30
41953;DHT22;63613;28.200;112.870;2023-06-19T07:15:16;30.90;52.90
41953;DHT22;63613;28.200;112.870;2023-06-19T07:17:44;30.90;52.30
41953;DHT22;63613;28.200;112.870;2023-06-19T07:20:14;30.90;51.90
41953;DHT22;63613;28.200;112.870;2023-06-19T07:22:42;30.90;51.40
41953;DHT22;63613;28.200;112.870;2023-06-19T07:25:11;30.90;50.90
41953;DHT22;63613;28.200;112.870;2023-06-19T07:27:45;30.80;50.50
41953;DHT22;63613;28.200;112.870;2023-06-19T07:30:12;30.80;50.00
41953;DHT22;63613;28.200;112.870;2023-06-19T07:32:39;30.80;49.70
41953;DHT22;63613;28.200;112.870;2023-06-19T07:35:07;30.80;49.20
41953;DHT22;63613;28.200;112.870;2023-06-19T07:37:34;30.80;48.90
41953;DHT22;63613;28.200;112.870;2023-06-19T07:40:00;30.80;48.60
41953;DHT22;63613;28.200;112.870;2023-06-19T07:42:28;30.80;48.10
41953;DHT22;63613;28.200;112.870;2023-06-19T07:44:54;30.80;47.60
41953;DHT22;63613;28.200;112.870;2023-06-19T07:47:22;30.80;47.30
41953;DHT22;63613;28.200;112.870;2023-06-19T07:49:51;30.80;46.90
41953;DHT22;63613;28.200;112.870;2023-06-19T07:52:19;30.80;46.50
41953;DHT22;63613;28.200;112.870;2023-06-19T07:54:51;30.80;46.20
41953;DHT22;63613;28.200;112.870;2023-06-19T07:57:19;30.70;45.90
41953;DHT22;63613;28.200;112.870;2023-06-19T07:59:49;30.80;45.90
41953;DHT22;63613;28.200;112.870;2023-06-19T08:02:17;30.80;45.70
41953;DHT22;63613;28.200;112.870;2023-06-19T08:04:45;30.70;45.60
41953;DHT22;63613;28.200;112.870;2023-06-19T08:07:12;30.70;45.40
41953;DHT22;63613;28.200;112.870;2023-06-19T08:09:40;30.70;45.30
41953;DHT22;63613;28.200;112.870;2023-06-19T08:12:07;30.70;45.20
41953;DHT22;63613;28.200;112.870;2023-06-19T08:14:34;30.70;45.00
41953;DHT22;63613;28.200;112.870;2023-06-19T08:17:00;30.70;44.90
41953;DHT22;63613;28.200;112.870;2023-06-19T08:19:47;30.70;44.80
41953;DHT22;63613;28.200;112.870;2023-06-19T08:22:16;30.70;44.50
41953;DHT22;63613;28.200;112.870;2023-06-19T08:24:43;30.70;44.50
41953;DHT22;63613;28.200;112.870;2023-06-19T08:27:10;30.70;44.30
41953;DHT22;63613;28.200;112.870;2023-06-19T08:29:36;30.70;44.30
41953;DHT22;63613;28.200;112.870;2023-06-19T08:32:23;30.70;44.20
41953;DHT22;63613;28.200;112.870;2023-06-19T08:34:51;30.70;43.90
41953;DHT22;63613;28.200;112.870;2023-06-19T08:37:18;30.70;43.60
41953;DHT22;63613;28.200;112.870;2023-06-19T08:39:45;30.70;43.50
41953;DHT22;63613;28.200;112.870;2023-06-19T08:42:11;30.70;43.40
41953;DHT22;63613;28.200;112.870;2023-06-19T08:44:38;30.60;43.30
41953;DHT22;63613;28.200;112.870;2023-06-19T08:47:31;30.60;43.20
41953;DHT22;63613;28.200;112.870;2023-06-19T08:50:01;30.60;43.10
41953;DHT22;63613;28.200;112.870;2023-06-19T08:52:29;30.60;43.00
41953;DHT22;63613;28.200;112.870;2023-06-19T08:54:55;30.60;42.80
41953;DHT22;63613;28.200;112.870;2023-06-19T08:57:33;30.60;42.70
41953;DHT22;63613;28.200;112.870;2023-06-19T09:00:00;30.60;42.40
41953;DHT22;63613;28.200;112.870;2023-06-19T09:02:37;30.60;42.20
41953;DHT22;63613;28.200;112.870;2023-06-19T09:05:14;30.60;42.00
41953;DHT22;63613;28.200;112.870;2023-06-19T09:07:42;30.60;41.70
41953;DHT22;63613;28.200;112.870;2023-06-19T09:10:18;30.60;41.60
41953;DHT22;63613;28.200;112.870;2023-06-19T09:12:59;30.60;41.40
41953;DHT22;63613;28.200;112.870;2023-06-19T09:15:34;30.50;41.20
41953;DHT22;63613;28.200;112.870;2023-06-19T09:18:09;30.50;41.00
41953;DHT22;63613;28.200;112.870;2023-06-19T09:20:41;30.50;40.90
41953;DHT22;63613;28.200;112.870;2023-06-19T09:23:13;30.50;40.70
41953;DHT22;63613;28.200;112.870;2023-06-19T09:25:51;30.50;40.70
41953;DHT22;63613;28.200;112.870;2023-06-19T09:28:26;30.50;40.50
41953;DHT22;63613;28.200;112.870;2023-06-19T09:31:01;30.50;40.50
41953;DHT22;63613;28.200;112.870;2023-06-19T09:33:33;30.40;40.50
41953;DHT22;63613;28.200;112.870;2023-06-19T09:36:05;30.40;40.40
41953;DHT22;63613;28.200;112.870;2023-06-19T09:38:36;30.40;40.40
41953;DHT22;63613;28.200;112.870;2023-06-19T09:41:10;30.40;40.30
41953;DHT22;63613;28.200;112.870;2023-06-19T09:43:43;30.40;40.30
41953;DHT22;63613;28.200;112.870;2023-06-19T09:46:10;30.40;40.20
41953;DHT22;63613;28.200;112.870;2023-06-19T09:48:44;30.30;40.10
41953;DHT22;63613;28.200;112.870;2023-06-19T09:51:27;30.40;40.10
41953;DHT22;63613;28.200;112.870;2023-06-19T09:53:57;30.40;39.80
41953;DHT22;63613;28.200;112.870;2023-06-19T09:56:29;30.40;39.70
41953;DHT22;63613;28.200;112.870;2023-06-19T09:58:59;30.40;39.70
41953;DHT22;63613;28.200;112.870;2023-06-19T10:01:29;30.30;39.60
41953;DHT22;63613;28.200;112.870;2023-06-19T10:04:07;30.40;39.50
41953;DHT22;63613;28.200;112.870;2023-06-19T10:06:46;30.30;39.60
41953;DHT22;63613;28.200;112.870;2023-06-19T10:09:15;30.30;39.70
41953;DHT22;63613;28.200;112.870;2023-06-19T10:11:49;30.30;39.50
41953;DHT22;63613;28.200;112.870;2023-06-19T10:14:20;30.30;39.50
41953;DHT22;63613;28.200;112.870;2023-06-19T10:17:08;30.20;39.40
41953;DHT22;63613;28.200;112.870;2023-06-19T10:19:35;30.20;39.40
41953;DHT22;63613;28.200;112.870;2023-06-19T10:22:04;30.20;39.40
41953;DHT22;63613;28.200;112.870;2023-06-19T10:24:31;30.20;39.40
41953;DHT22;63613;28.200;112.870;2023-06-19T10:27:21;30.20;39.30
41953;DHT22;63613;28.200;112.870;2023-06-19T10:29:55;30.20;39.50
41953;DHT22;63613;28.200;112.870;2023-06-19T10:32:24;30.20;39.30
41953;DHT22;63613;28.200;112.870;2023-06-19T10:34:50;30.20;39.30
41953;DHT22;63613;28.200;112.870;2023-06-19T10:37:37;30.20;39.40
41953;DHT22;63613;28.200;112.870;2023-06-19T10:40:05;30.20;39.60
41953;DHT22;63613;28.200;112.870;2023-06-19T10:42:39;30.20;39.60
41953;DHT22;63613;28.200;112.870;2023-06-19T10:45:10;30.20;39.60
41953;DHT22;63613;28.200;112.870;2023-06-19T10:47:43;30.10;39.60
41953;DHT22;63613;28.200;112.870;2023-06-19T10:50:12;30.10;39.50
41953;DHT22;63613;28.200;112.870;2023-06-19T10:52:43;30.10;39.10
41953;DHT22;63613;28.200;112.870;2023-06-19T10:55:12;30.10;39.40
41953;DHT22;63613;28.200;112.870;2023-06-19T10:57:45;30.00;39.20
41953;DHT22;63613;28.200;112.870;2023-06-19T11:00:21;30.00;39.30
41953;DHT22;63613;28.200;112.870;2023-06-19T11:02:48;30.00;39.10
41953;DHT22;63613;28.200;112.870;2023-06-19T11:05:15;30.00;39.10
41953;DHT22;63613;28.200;112.870;2023-06-19T11:07:42;30.00;39.00
41953;DHT22;63613;28.200;112.870;2023-06-19T11:10:19;30.00;39.00
41953;DHT22;63613;28.200;112.870;2023-06-19T11:12:46;29.90;38.80
41953;DHT22;63613;28.200;112.870;2023-06-19T11:15:13;29.90;39.00
41953;DHT22;63613;28.200;112.870;2023-06-19T11:17:40;29.90;38.70
41953;DHT22;63613;28.200;112.870;2023-06-19T11:20:14;29.90;38.70
41953;DHT22;63613;28.200;112.870;2023-06-19T11:22:41;29.90;38.70
41953;DHT22;63613;28.200;112.870;2023-06-19T11:25:10;29.90;38.60
41953;DHT22;63613;28.200;112.870;2023-06-19T11:27:40;29.90;38.60
41953;DHT22;63613;28.200;112.870;2023-06-19T11:30:07;29.80;38.60
41953;DHT22;63613;28.200;112.870;2023-06-19T11:32:37;29.80;38.40
41953;DHT22;63613;28.200;112.870;2023-06-19T11:35:10;29.80;38.80
41953;DHT22;63613;28.200;112.870;2023-06-19T11:37:41;29.80;38.50
41953;DHT22;63613;28.200;112.870;2023-06-19T11:40:09;29.80;38.60
41953;DHT22;63613;28.200;112.870;2023-06-19T11:43:03;29.80;38.60
41953;DHT22;63613;28.200;112.870;2023-06-19T11:45:29;29.80;38.60
41953;DHT22;63613;28.200;112.870;2023-06-19T11:47:56;29.80;38.40
41953;DHT22;63613;28.200;112.870;2023-06-19T11:50:43;29.80;38.70
41953;DHT22;63613;28.200;112.870;2023-06-19T11:53:13;29.80;38.90
41953;DHT22;63613;28.200;112.870;2023-06-19T11:55:40;29.80;38.70
41953;DHT22;63613;28.200;112.870;2023-06-19T11:58:06;29.70;38.60
41953;DHT22;63613;28.200;112.870;2023-06-19T12:00:33;29.80;38.60
41953;DHT22;63613;28.200;112.870;2023-06-19T12:03:00;29.70;38.80
41953;DHT22;63613;28.200;112.870;2023-06-19T12:05:30;29.70;38.60
41953;DHT22;63613;28.200;112.870;2023-06-19T12:07:58;29.70;38.70
41953;DHT22;63613;28.200;112.870;2023-06-19T12:10:29;29.70;38.80
41953;DHT22;63613;28.200;112.870;2023-06-19T12:12:59;29.70;38.60
41953;DHT22;63613;28.200;112.870;2023-06-19T12:15:25;29.70;38.50
41953;DHT22;63613;28.200;112.870;2023-06-19T12:17:53;29.70;38.30
41953;DHT22;63613;28.200;112.870;2023-06-19T12:20:20;29.70;38.40
41953;DHT22;63613;28.200;112.870;2023-06-19T12:22:46;29.70;38.30
41953;DHT22;63613;28.200;112.870;2023-06-19T12:25:33;29.70;38.20
41953;DHT22;63613;28.200;112.870;2023-06-19T12:28:00;29.70;38.30
41953;DHT22;63613;28.200;112.870;2023-06-19T12:30:29;29.70;38.30
41953;DHT22;63613;28.200;112.870;2023-06-19T12:32:57;29.70;38.30
41953;DHT22;63613;28.200;112.870;2023-06-19T12:35:23;29.70;38.30
41953;DHT22;63613;28.200;112.870;2023-06-19T12:37:52;29.70;38.20
41953;DHT22;63613;28.200;112.870;2023-06-19T12:40:21;29.60;38.10
41953;DHT22;63613;28.200;112.870;2023-06-19T12:42:48;29.70;38.20
41953;DHT22;63613;28.200;112.870;2023-06-19T12:45:16;29.60;38.10
41953;DHT22;63613;28.200;112.870;2023-06-19T12:47:43;29.60;38.10
41953;DHT22;63613;28.200;112.870;2023-06-19T12:50:12;29.60;38.20
41953;DHT22;63613;28.200;112.870;2023-06-19T12:52:39;29.60;38.10
41953;DHT22;63613;28.200;112.870;2023-06-19T12:55:06;29.60;38.10
41953;DHT22;63613;28.200;112.870;2023-06-19T12:57:33;29.60;38.20
41953;DHT22;63613;28.200;112.870;2023-06-19T13:00:00;29.60;38.20
41953;DHT22;63613;28.200;112.870;2023-06-19T13:02:31;29.60;38.20
41953;DHT22;63613;28.200;112.870;2023-06-19T13:04:58;29.60;38.30
41953;DHT22;63613;28.200;112.870;2023-06-19T13:07:27;29.50;38.20
41953;DHT22;63613;28.200;112.870;2023-06-19T13:09:54;29.60;38.20
41953;DHT22;63613;28.200;112.870;2023-06-19T13:12:22;29.50;38.20
41953;DHT22;63613;28.200;112.870;2023-06-19T13:14:50;29.50;38.30
41953;DHT22;63613;28.200;112.870;2023-06-19T13:17:16;29.50;38.20
41953;DHT22;63613;28.200;112.870;2023-06-19T13:19:43;29.50;38.20
41953;DHT22;63613;28.200;112.870;2023-06-19T13:22:10;29.50;38.10
41953;DHT22;63613;28.200;112.870;2023-06-19T13:24:37;29.50;38.10
41953;DHT22;63613;28.200;112.870;2023-06-19T13:27:04;29.50;38.10
41953;DHT22;63613;28.200;112.870;2023-06-19T13:29:31;29.50;38.20
41953;DHT22;63613;28.200;112.870;2023-06-19T13:31:59;29.50;38.20
41953;DHT22;63613;28.200;112.870;2023-06-19T13:34:30;29.50;38.10
41953;DHT22;63613;28.200;112.870;2023-06-19T13:36:57;29.50;38.00
41953;DHT22;63613;28.200;112.870;2023-06-19T13:39:43;29.50;38.00
41953;DHT22;63613;28.200;112.870;2023-06-19T13:42:10;29.50;37.80
41953;DHT22;63613;28.200;112.870;2023-06-19T13:44:38;29.50;38.00
41953;DHT22;63613;28.200;112.870;2023-06-19T13:47:05;29.50;37.90
41953;DHT22;63613;28.200;112.870;2023-06-19T13:49:32;29.50;37.90
41953;DHT22;63613;28.200;112.870;2023-06-19T13:52:02;29.40;37.90
41953;DHT22;63613;28.200;112.870;2023-06-19T13:54:28;29.50;38.00
41953;DHT22;63613;28.200;112.870;2023-06-19T13:56:57;29.40;37.90
41953;DHT22;63613;28.200;112.870;2023-06-19T13:59:24;29.40;37.80
41953;DHT22;63613;28.200;112.870;2023-06-19T14:01:55;29.50;37.80
41953;DHT22;63613;28.200;112.870;2023-06-19T14:04:21;29.50;37.90
41953;DHT22;63613;28.200;112.870;2023-06-19T14:06:48;29.40;38.00
41953;DHT22;63613;28.200;112.870;2023-06-19T14:09:15;29.40;38.10
41953;DHT22;63613;28.200;112.870;2023-06-19T14:11:43;29.40;38.10
41953;DHT22;63613;28.200;112.870;2023-06-19T14:14:10;29.40;38.10
41953;DHT22;63613;28.200;112.870;2023-06-19T14:16:37;29.40;38.10
41953;DHT22;63613;28.200;112.870;2023-06-19T14:19:24;29.40;38.10
41953;DHT22;63613;28.200;112.870;2023-06-19T14:21:54;29.40;38.10
41953;DHT22;63613;28.200;112.870;2023-06-19T14:24:21;29.40;37.90
41953;DHT22;63613;28.200;112.870;2023-06-19T14:26:50;29.40;38.10
41953;DHT22;63613;28.200;112.870;2023-06-19T14:29:21;29.40;38.10
41953;DHT22;63613;28.200;112.870;2023-06-19T14:31:50;29.40;37.90
41953;DHT22;63613;28.200;112.870;2023-06-19T14:34:17;29.40;37.80
41953;DHT22;63613;28.200;112.870;2023-06-19T14:37:05;29.40;37.80
41953;DHT22;63613;28.200;112.870;2023-06-19T14:39:32;29.40;37.90
41953;DHT22;63613;28.200;112.870;2023-06-19T14:41:58;29.40;37.80
41953;DHT22;63613;28.200;112.870;2023-06-19T14:44:25;29.30;37.80
41953;DHT22;63613;28.200;112.870;2023-06-19T14:46:52;29.40;37.70
41953;DHT22;63613;28.200;112.870;2023-06-19T14:49:20;29.30;37.80
41953;DHT22;63613;28.200;112.870;2023-06-19T14:51:51;29.40;38.10
41953;DHT22;63613;28.200;112.870;2023-06-19T14:54:20;29.30;38.10
41953;DHT22;63613;28.200;112.870;2023-06-19T14:56:49;29.30;38.10
41953;DHT22;63613;28.200;112.870;2023-06-19T14:59:18;29.30;38.10
41953;DHT22;63613;28.200;112.870;2023-06-19T15:01:45;29.30;38.10
41953;DHT22;63613;28.200;112.870;2023-06-19T15:04:16;29.30;38.10
41953;DHT22;63613;28.200;112.870;2023-06-19T15:06:43;29.30;38.10
41953;DHT22;63613;28.200;112.870;2023-06-19T15:09:11;29.30;38.00
41953;DHT22;63613;28.200;112.870;2023-06-19T15:11:40;29.30;37.70
41953;DHT22;63613;28.200;112.870;2023-06-19T15:14:08;29.30;37.70
41953;DHT22;63613;28.200;112.870;2023-06-19T15:16:34;29.30;37.50
41953;DHT22;63613;28.200;112.870;2023-06-19T15:19:01;29.30;37.50